Time;durP1;ratioP1;P1;durP2;ratioP2;P2;SDS_P1;SDS_P2;PMS_P1;PMS_P2;Temp;Humidity;BMP_temperature;BMP_pressure;BME280_temperature;BME280_humidity;BME280_pressure;Samples;Min_cycle;Max_cycle;Signal;HPM_P1;HPM_P2
2021/04/30 00:00:43;;;;;;;10.83;6.10;;;6.40;66.10;;;;;;4938218;29;20676;-77
2021/04/30 00:03:09;;;;;;;8.40;5.93;;;6.40;66.30;;;;;;4937384;29;20696;-76
2021/04/30 00:05:35;;;;;;;8.97;5.00;;;6.40;66.30;;;;;;4936873;29;20520;-77
2021/04/30 00:08:01;;;;;;;6.77;5.23;;;6.40;66.40;;;;;;4937336;29;20217;-78
2021/04/30 00:10:27;;;;;;;7.50;5.27;;;6.40;66.50;;;;;;4938731;29;21017;-78
2021/04/30 00:12:53;;;;;;;9.10;5.43;;;6.40;66.60;;;;;;4937416;29;20869;-77
2021/04/30 00:15:19;;;;;;;8.50;5.20;;;6.30;66.60;;;;;;4936969;29;20413;-79
2021/04/30 00:17:44;;;;;;;16.00;4.97;;;6.30;66.80;;;;;;4939342;29;20417;-77
2021/04/30 00:20:12;;;;;;;9.13;4.40;;;6.30;66.70;;;;;;4939814;29;20409;-79
2021/04/30 00:22:38;;;;;;;9.07;4.83;;;6.30;66.60;;;;;;4953670;28;20190;-79
2021/04/30 00:25:04;;;;;;;11.80;5.57;;;6.40;66.60;;;;;;4936933;29;20413;-78
2021/04/30 00:27:30;;;;;;;8.03;5.10;;;6.30;66.50;;;;;;4938350;29;20194;-78
2021/04/30 00:29:55;;;;;;;15.00;5.70;;;6.40;66.80;;;;;;4940216;29;20798;-78
2021/04/30 00:32:21;;;;;;;9.07;5.30;;;6.40;67.40;;;;;;4937333;29;20256;-77
2021/04/30 00:34:47;;;;;;;9.17;4.93;;;6.30;66.40;;;;;;4937251;29;20165;-76
2021/04/30 00:37:13;;;;;;;7.40;4.70;;;6.40;66.70;;;;;;4937234;29;20570;-77
2021/04/30 00:39:38;;;;;;;8.03;4.03;;;6.40;66.70;;;;;;4937888;29;20413;-76
2021/04/30 00:42:05;;;;;;;7.93;4.70;;;6.40;66.30;;;;;;4937444;29;20185;-78
2021/04/30 00:44:31;;;;;;;8.13;4.37;;;6.40;66.50;;;;;;4939888;29;20180;-77
2021/04/30 00:46:57;;;;;;;8.63;3.90;;;6.40;66.40;;;;;;4938374;29;20489;-77
2021/04/30 00:49:23;;;;;;;24.20;4.60;;;6.40;66.50;;;;;;4938580;29;20409;-77
2021/04/30 00:51:49;;;;;;;7.63;4.90;;;6.40;66.50;;;;;;4938618;29;20452;-77
2021/04/30 00:54:15;;;;;;;5.23;3.93;;;6.40;66.70;;;;;;4939474;29;20767;-77
2021/04/30 00:56:41;;;;;;;11.70;5.00;;;6.40;66.40;;;;;;4952403;29;20154;-76
2021/04/30 00:59:07;;;;;;;7.70;4.40;;;6.40;66.50;;;;;;4937307;28;20414;-77
2021/04/30 01:01:33;;;;;;;15.30;4.60;;;6.40;66.50;;;;;;4952023;28;20406;-77
2021/04/30 01:04:00;;;;;;;8.37;4.97;;;6.40;66.60;;;;;;4938548;29;20193;-77
2021/04/30 01:06:25;;;;;;;12.27;4.23;;;6.40;66.50;;;;;;4937542;29;20422;-77
2021/04/30 01:08:51;;;;;;;9.23;4.90;;;6.30;66.70;;;;;;4937600;29;20421;-77
2021/04/30 01:11:17;;;;;;;5.33;4.27;;;6.30;66.80;;;;;;4938527;29;20176;-78
2021/04/30 01:13:43;;;;;;;9.07;4.07;;;6.30;67.20;;;;;;4938022;29;20197;-78
2021/04/30 01:16:09;;;;;;;6.70;4.43;;;6.20;67.10;;;;;;4937365;29;20632;-78
2021/04/30 01:18:46;;;;;;;8.40;4.60;;;6.20;67.40;;;;;;4938063;29;20173;-79
2021/04/30 01:21:13;;;;;;;9.10;5.00;;;6.20;67.50;;;;;;4938341;29;20475;-78
2021/04/30 01:23:49;;;;;;;9.77;4.70;;;6.20;67.60;;;;;;4936742;29;20449;-77
2021/04/30 01:26:16;;;;;;;11.37;5.83;;;6.30;67.70;;;;;;4937552;29;20405;-77
2021/04/30 01:28:42;;;;;;;7.23;5.43;;;6.40;67.40;;;;;;4936056;29;20449;-76
2021/04/30 01:31:08;;;;;;;8.70;5.37;;;6.40;67.00;;;;;;4952695;28;20417;-78
2021/04/30 01:33:34;;;;;;;10.63;6.13;;;6.50;66.70;;;;;;4938987;29;20272;-78
2021/04/30 01:36:00;;;;;;;11.80;4.67;;;6.60;66.40;;;;;;4938187;29;20258;-76
2021/04/30 01:38:26;;;;;;;12.93;5.80;;;6.70;66.10;;;;;;4941518;29;20435;-77
2021/04/30 01:40:52;;;;;;;9.43;5.00;;;6.70;65.90;;;;;;4946059;29;20430;-77
2021/04/30 01:43:20;;;;;;;14.80;5.90;;;6.80;65.80;;;;;;4945152;29;20995;-77
2021/04/30 01:45:52;;;;;;;9.03;5.33;;;6.80;65.50;;;;;;4957971;29;20433;-77
2021/04/30 01:48:20;;;;;;;13.23;7.50;;;6.80;65.20;;;;;;4941704;29;20488;-77
2021/04/30 01:50:46;;;;;;;10.17;5.87;;;6.80;65.10;;;;;;4944598;29;20430;-75
2021/04/30 01:53:14;;;;;;;11.17;6.43;;;6.80;65.10;;;;;;4944766;29;20837;-77
2021/04/30 01:55:41;;;;;;;9.60;7.03;;;6.70;65.00;;;;;;4945291;29;20485;-77
2021/04/30 01:58:06;;;;;;;10.00;6.50;;;6.70;65.20;;;;;;4945211;29;20456;-78
2021/04/30 02:00:32;;;;;;;10.00;6.77;;;6.70;65.30;;;;;;4941837;29;20429;-79
2021/04/30 02:02:59;;;;;;;11.33;6.10;;;6.70;65.10;;;;;;4940170;29;20189;-77
2021/04/30 02:05:30;;;;;;;15.83;7.37;;;6.80;65.20;;;;;;4952486;29;20174;-78
2021/04/30 02:08:01;;;;;;;10.80;7.40;;;6.80;65.00;;;;;;4937770;29;20454;-77
2021/04/30 02:10:27;;;;;;;12.73;7.10;;;6.80;65.00;;;;;;4940263;29;20422;-77
2021/04/30 02:12:54;;;;;;;11.80;6.90;;;6.80;64.80;;;;;;4938165;29;20526;-78
2021/04/30 02:15:22;;;;;;;11.27;7.07;;;6.80;64.90;;;;;;4936433;29;20604;-77
2021/04/30 02:17:48;;;;;;;10.20;8.23;;;6.80;64.90;;;;;;4937528;28;20424;-77
2021/04/30 02:20:16;;;;;;;15.60;7.70;;;6.80;65.00;;;;;;4937045;29;20417;-77
2021/04/30 02:22:41;;;;;;;13.13;7.73;;;6.80;64.90;;;;;;4936449;29;20218;-77
2021/04/30 02:25:09;;;;;;;13.30;7.57;;;6.80;64.60;;;;;;4936256;29;20413;-77
2021/04/30 02:27:35;;;;;;;13.10;6.83;;;6.80;64.60;;;;;;4936319;29;20197;-77
2021/04/30 02:30:00;;;;;;;10.93;6.90;;;6.80;64.90;;;;;;4935733;29;20468;-77
2021/04/30 02:32:27;;;;;;;12.57;8.23;;;6.80;64.80;;;;;;4937629;29;20186;-77
2021/04/30 02:34:53;;;;;;;14.70;8.10;;;6.80;65.00;;;;;;4941302;29;20218;-77
2021/04/30 02:37:19;;;;;;;14.23;8.37;;;6.80;65.00;;;;;;4939656;29;20424;-77
2021/04/30 02:39:46;;;;;;;11.47;8.40;;;6.80;64.70;;;;;;4939881;29;20417;-77
2021/04/30 02:42:12;;;;;;;13.10;8.83;;;6.80;65.00;;;;;;4939507;29;20437;-76
2021/04/30 02:44:37;;;;;;;14.30;7.30;;;6.80;65.00;;;;;;4940010;29;20432;-77
2021/04/30 02:47:03;;;;;;;16.50;8.93;;;6.80;64.90;;;;;;4939407;29;20225;-77
2021/04/30 02:49:44;;;;;;;11.53;7.83;;;6.80;65.00;;;;;;4939745;29;20170;-77
2021/04/30 02:52:14;;;;;;;11.70;8.80;;;6.80;64.80;;;;;;4941732;29;20409;-77
2021/04/30 02:54:39;;;;;;;13.70;8.47;;;6.80;64.60;;;;;;4942019;29;20546;-78
2021/04/30 02:57:06;;;;;;;15.10;9.30;;;6.80;64.60;;;;;;4945637;29;20445;-77
2021/04/30 02:59:32;;;;;;;10.50;8.40;;;6.80;64.60;;;;;;4940156;29;20200;-77
2021/04/30 03:01:58;;;;;;;14.50;8.93;;;6.80;64.70;;;;;;4941015;29;20441;-77
2021/04/30 03:04:24;;;;;;;17.17;9.20;;;6.80;64.80;;;;;;4937818;29;20446;-77
2021/04/30 03:06:50;;;;;;;11.40;9.50;;;6.80;65.20;;;;;;4939037;29;20555;-76
2021/04/30 03:09:16;;;;;;;12.97;8.60;;;6.80;65.10;;;;;;4939112;29;20178;-77
2021/04/30 03:11:42;;;;;;;18.73;7.83;;;6.80;64.80;;;;;;4939411;29;20891;-77
2021/04/30 03:14:08;;;;;;;19.33;10.20;;;6.80;64.80;;;;;;4955374;28;20433;-77
2021/04/30 03:16:34;;;;;;;16.30;9.27;;;6.80;64.70;;;;;;4940658;29;20410;-76
2021/04/30 03:19:01;;;;;;;14.37;9.90;;;6.70;65.00;;;;;;4940413;29;20453;-76
2021/04/30 03:21:26;;;;;;;13.27;10.17;;;6.70;65.10;;;;;;4941209;29;20437;-76
2021/04/30 03:23:52;;;;;;;10.07;8.00;;;6.80;65.30;;;;;;4940738;29;20445;-77
2021/04/30 03:26:18;;;;;;;12.60;9.37;;;6.80;65.20;;;;;;4922700;29;20170;-77
2021/04/30 03:28:44;;;;;;;13.37;8.93;;;6.80;65.20;;;;;;4937826;28;20471;-77
2021/04/30 03:31:10;;;;;;;17.20;9.53;;;6.80;65.00;;;;;;4938796;29;20174;-77
2021/04/30 03:33:36;;;;;;;14.77;9.40;;;6.80;65.00;;;;;;4939247;29;20575;-77
2021/04/30 03:36:01;;;;;;;16.90;8.80;;;6.80;65.00;;;;;;4941624;29;20464;-77
2021/04/30 03:38:27;;;;;;;18.80;9.67;;;6.80;65.00;;;;;;4941094;29;20421;-77
2021/04/30 03:40:53;;;;;;;15.40;9.97;;;6.90;65.00;;;;;;4941189;29;20270;-76
2021/04/30 03:43:19;;;;;;;18.67;10.87;;;6.90;65.10;;;;;;4940695;28;20437;-78
2021/04/30 03:45:44;;;;;;;14.00;10.00;;;6.80;65.00;;;;;;4952159;29;20169;-77
2021/04/30 03:48:10;;;;;;;13.70;9.13;;;6.80;64.70;;;;;;4953003;29;20217;-78
2021/04/30 03:50:36;;;;;;;14.50;10.33;;;6.80;64.80;;;;;;4973526;29;20168;-75
2021/04/30 03:53:01;;;;;;;13.20;9.73;;;6.90;64.90;;;;;;4954913;29;20209;-76
2021/04/30 03:55:27;;;;;;;13.90;9.30;;;6.90;64.90;;;;;;4954373;29;20270;-76
2021/04/30 03:57:53;;;;;;;14.13;10.43;;;6.90;64.80;;;;;;4955054;29;20182;-76
2021/04/30 04:00:19;;;;;;;13.93;10.70;;;6.90;64.60;;;;;;4946505;29;20577;-77
2021/04/30 04:02:47;;;;;;;17.57;9.60;;;6.90;64.70;;;;;;4938388;29;20244;-77
2021/04/30 04:05:13;;;;;;;22.53;10.20;;;6.90;64.80;;;;;;4938369;29;20468;-78
2021/04/30 04:07:39;;;;;;;18.60;9.97;;;6.90;64.60;;;;;;4937584;29;20463;-77
2021/04/30 04:10:06;;;;;;;17.30;10.90;;;6.90;64.60;;;;;;4938466;29;20429;-78
2021/04/30 04:12:31;;;;;;;25.00;13.00;;;6.90;64.80;;;;;;4939337;29;20438;-77
2021/04/30 04:14:57;;;;;;;24.80;12.00;;;6.90;65.10;;;;;;4938041;29;20402;-77
2021/04/30 04:17:23;;;;;;;16.23;10.93;;;7.00;65.00;;;;;;4937377;29;20554;-77
2021/04/30 04:19:49;;;;;;;14.87;10.87;;;7.00;65.10;;;;;;4938570;29;20177;-77
2021/04/30 04:22:16;;;;;;;20.53;11.57;;;7.00;64.80;;;;;;4937890;29;20174;-78
2021/04/30 04:24:42;;;;;;;14.10;10.30;;;7.00;64.50;;;;;;4939561;29;20945;-77
2021/04/30 04:27:08;;;;;;;16.40;11.33;;;7.00;64.70;;;;;;4940718;29;20489;-77
2021/04/30 04:29:35;;;;;;;16.10;11.20;;;7.00;64.70;;;;;;4937112;29;20421;-77
2021/04/30 04:32:01;;;;;;;15.30;11.30;;;7.00;64.70;;;;;;4960983;28;20413;-76
2021/04/30 04:34:27;;;;;;;16.00;11.00;;;7.00;64.80;;;;;;4940161;29;20456;-77
2021/04/30 04:36:53;;;;;;;15.67;10.63;;;6.90;65.00;;;;;;4943304;29;20436;-77
2021/04/30 04:39:19;;;;;;;19.73;11.93;;;7.00;65.20;;;;;;4944325;29;20181;-77
2021/04/30 04:41:45;;;;;;;19.87;11.50;;;7.00;65.10;;;;;;4939355;29;20921;-77
2021/04/30 04:44:12;;;;;;;18.23;11.87;;;7.00;65.10;;;;;;4936568;29;20445;-77
2021/04/30 04:46:37;;;;;;;18.97;11.47;;;7.00;65.20;;;;;;4951133;29;20226;-77
2021/04/30 04:49:03;;;;;;;24.70;11.80;;;7.00;65.20;;;;;;4935196;29;20817;-77
2021/04/30 04:51:29;;;;;;;28.97;14.17;;;7.00;65.20;;;;;;4936139;29;20267;-79
2021/04/30 04:53:54;;;;;;;26.43;15.27;;;7.10;65.40;;;;;;4935206;28;20261;-77
2021/04/30 04:56:25;;;;;;;17.27;13.50;;;7.10;65.30;;;;;;4935509;29;20257;-77
2021/04/30 04:58:52;;;;;;;17.67;12.27;;;7.10;65.30;;;;;;4952495;28;20177;-77
2021/04/30 05:01:17;;;;;;;20.80;12.60;;;7.10;65.20;;;;;;4953158;28;20413;-78
2021/04/30 05:03:43;;;;;;;22.63;13.00;;;7.10;64.90;;;;;;4938399;29;20432;-78
2021/04/30 05:06:09;;;;;;;24.43;11.90;;;7.20;65.20;;;;;;4936251;29;20665;-77
2021/04/30 05:08:34;;;;;;;15.23;11.17;;;7.20;65.00;;;;;;4937208;29;20209;-78
2021/04/30 05:11:00;;;;;;;19.90;10.47;;;7.20;64.60;;;;;;4936732;29;20178;-78
2021/04/30 05:13:26;;;;;;;13.23;10.80;;;7.20;64.60;;;;;;4938439;29;20731;-78
2021/04/30 05:15:52;;;;;;;15.07;10.10;;;7.20;64.40;;;;;;4942410;29;20470;-79
2021/04/30 05:18:18;;;;;;;18.70;12.50;;;7.20;64.40;;;;;;4939190;29;20170;-78
2021/04/30 05:20:43;;;;;;;23.10;11.40;;;7.20;64.50;;;;;;4938240;29;20170;-79
2021/04/30 05:23:09;;;;;;;22.67;12.07;;;7.20;64.50;;;;;;4953560;28;20441;-77
2021/04/30 05:25:35;;;;;;;22.87;12.73;;;7.20;64.60;;;;;;4937753;29;20420;-78
2021/04/30 05:28:01;;;;;;;21.30;11.03;;;7.30;64.50;;;;;;4936997;29;20193;-77
2021/04/30 05:30:26;;;;;;;28.10;11.50;;;7.30;64.30;;;;;;4945463;28;20184;-77
2021/04/30 05:32:52;;;;;;;20.53;11.30;;;7.30;63.90;;;;;;4941147;29;20189;-77
2021/04/30 05:35:18;;;;;;;24.40;12.40;;;7.30;64.30;;;;;;4938863;29;20172;-79
2021/04/30 05:37:43;;;;;;;20.67;12.00;;;7.30;64.20;;;;;;4963532;28;20521;-77
2021/04/30 05:40:10;;;;;;;41.17;14.50;;;7.30;64.10;;;;;;4951025;28;20174;-78
2021/04/30 05:42:35;;;;;;;30.47;14.00;;;7.30;64.00;;;;;;4942101;29;20197;-78
2021/04/30 05:45:01;;;;;;;31.10;13.10;;;7.30;64.10;;;;;;4936796;29;20842;-77
2021/04/30 05:47:27;;;;;;;23.23;11.87;;;7.40;64.20;;;;;;4937002;29;20705;-78
2021/04/30 05:49:53;;;;;;;17.70;10.40;;;7.40;64.30;;;;;;4936231;29;20429;-77
2021/04/30 05:52:18;;;;;;;23.97;12.40;;;7.40;64.20;;;;;;4936062;29;20248;-77
2021/04/30 05:54:44;;;;;;;30.80;12.97;;;7.40;64.10;;;;;;4936915;29;20177;-77
2021/04/30 05:57:10;;;;;;;20.53;13.80;;;7.40;63.90;;;;;;4937118;29;20166;-77
2021/04/30 05:59:36;;;;;;;18.33;11.70;;;7.40;64.20;;;;;;4944168;29;20260;-78
2021/04/30 06:02:01;;;;;;;21.80;13.00;;;7.40;64.20;;;;;;4958678;28;20169;-77
2021/04/30 06:04:28;;;;;;;20.43;12.10;;;7.40;64.20;;;;;;4957257;28;20448;-77
2021/04/30 06:06:54;;;;;;;20.97;12.87;;;7.40;64.30;;;;;;4958775;28;20263;-76
2021/04/30 06:09:20;;;;;;;16.93;11.40;;;7.50;64.20;;;;;;4964643;28;20424;-77
2021/04/30 06:11:46;;;;;;;15.10;11.90;;;7.50;64.00;;;;;;4977992;28;20630;-77
2021/04/30 06:14:12;;;;;;;17.30;10.60;;;7.50;63.80;;;;;;4970237;28;20211;-77
2021/04/30 06:16:56;;;;;;;17.27;11.23;;;7.50;63.90;;;;;;4958356;28;20255;-77
2021/04/30 06:19:26;;;;;;;20.83;12.23;;;7.50;63.90;;;;;;4940040;28;21096;-75
2021/04/30 06:21:52;;;;;;;17.50;10.80;;;7.50;63.90;;;;;;4956641;28;20424;-76
2021/04/30 06:24:24;;;;;;;21.43;11.40;;;7.50;63.70;;;;;;4967563;28;20441;-76
2021/04/30 06:26:50;;;;;;;22.07;10.90;;;7.50;63.80;;;;;;4956638;28;20421;-76
2021/04/30 06:29:24;;;;;;;20.67;11.43;;;7.60;63.60;;;;;;4973715;28;20412;-75
2021/04/30 06:31:50;;;;;;;18.30;11.00;;;7.60;63.60;;;;;;4957490;28;20800;-75
2021/04/30 06:34:25;;;;;;;18.50;12.57;;;7.60;63.90;;;;;;4955734;29;20211;-75
2021/04/30 06:37:05;;;;;;;19.43;11.43;;;7.60;63.70;;;;;;4968673;28;20199;-74
2021/04/30 06:39:34;;;;;;;17.10;10.90;;;7.60;65.00;;;;;;4955357;28;20428;-75
2021/04/30 06:42:02;;;;;;;21.00;13.37;;;7.60;65.40;;;;;;4954824;28;20444;-74
2021/04/30 06:44:34;;;;;;;25.63;12.77;;;7.60;66.10;;;;;;4971781;28;20460;-74
2021/04/30 06:47:00;;;;;;;17.37;12.60;;;7.70;66.20;;;;;;4971477;28;20449;-75
2021/04/30 06:49:30;;;;;;;24.10;12.90;;;7.60;66.20;;;;;;4972428;28;20425;-76
2021/04/30 06:52:01;;;;;;;24.30;14.43;;;7.70;66.70;;;;;;4971333;28;20509;-76
2021/04/30 06:54:33;;;;;;;22.30;13.60;;;7.80;66.00;;;;;;4955508;28;20456;-77
2021/04/30 06:56:58;;;;;;;26.13;13.47;;;7.80;66.00;;;;;;4955680;28;21099;-75
2021/04/30 06:59:24;;;;;;;19.33;12.30;;;7.90;66.60;;;;;;4958267;28;20443;-75
2021/04/30 07:01:53;;;;;;;17.03;12.50;;;8.00;65.50;;;;;;4960837;28;20177;-75
2021/04/30 07:04:24;;;;;;;27.17;14.93;;;8.10;64.90;;;;;;4971819;28;20221;-75
2021/04/30 07:06:50;;;;;;;20.80;11.73;;;8.20;65.00;;;;;;4939033;28;20776;-77
2021/04/30 07:09:16;;;;;;;24.97;12.87;;;8.30;65.60;;;;;;4957205;28;20421;-77
2021/04/30 07:11:41;;;;;;;20.23;13.50;;;8.40;64.10;;;;;;4957492;28;20214;-74
2021/04/30 07:14:07;;;;;;;25.27;15.37;;;8.30;64.50;;;;;;4956371;28;20201;-73
2021/04/30 07:16:34;;;;;;;24.83;14.47;;;8.30;64.70;;;;;;4955730;28;20173;-74
2021/04/30 07:19:00;;;;;;;23.60;13.53;;;8.20;65.30;;;;;;4954581;28;20181;-74
2021/04/30 07:21:25;;;;;;;20.67;13.43;;;8.20;65.30;;;;;;4954807;28;20492;-75
2021/04/30 07:23:52;;;;;;;17.83;13.30;;;8.20;65.90;;;;;;4955795;28;20475;-73
2021/04/30 07:26:18;;;;;;;24.80;12.83;;;8.10;65.60;;;;;;4955435;28;20637;-75
2021/04/30 07:28:44;;;;;;;20.57;12.90;;;8.10;65.80;;;;;;4953316;28;20464;-74
2021/04/30 07:31:09;;;;;;;23.50;13.27;;;8.10;66.20;;;;;;4953104;28;20464;-75
2021/04/30 07:33:45;;;;;;;29.30;15.33;;;8.10;66.20;;;;;;4956815;28;20252;-75
2021/04/30 07:36:12;;;;;;;19.33;12.23;;;8.00;66.50;;;;;;4962317;28;20161;-78
2021/04/30 07:38:37;;;;;;;28.27;16.37;;;8.00;66.70;;;;;;4958771;28;20435;-74
2021/04/30 07:41:03;;;;;;;25.93;14.80;;;8.00;66.80;;;;;;4952554;28;20429;-74
2021/04/30 07:43:29;;;;;;;26.13;15.63;;;8.00;66.60;;;;;;4956617;28;20731;-74
2021/04/30 07:45:55;;;;;;;25.27;15.30;;;8.00;67.10;;;;;;4955438;28;20184;-74
2021/04/30 07:48:20;;;;;;;23.63;14.60;;;8.00;66.60;;;;;;4954520;28;20205;-75
2021/04/30 07:50:46;;;;;;;22.80;14.17;;;8.10;67.30;;;;;;4954075;28;20184;-76
2021/04/30 07:53:12;;;;;;;22.93;14.60;;;8.20;66.80;;;;;;4957547;28;20205;-73
2021/04/30 07:55:37;;;;;;;22.77;13.00;;;8.20;65.70;;;;;;4957301;28;20538;-75
2021/04/30 07:58:03;;;;;;;22.90;14.03;;;8.30;66.10;;;;;;4956517;28;20205;-74
2021/04/30 08:00:30;;;;;;;18.17;13.57;;;8.40;65.00;;;;;;4971735;28;20169;-74
2021/04/30 08:02:56;;;;;;;33.90;13.30;;;8.30;64.20;;;;;;4969248;28;20428;-75
2021/04/30 08:05:21;;;;;;;25.03;13.50;;;8.30;64.20;;;;;;4950194;28;20464;-74
2021/04/30 08:07:47;;;;;;;27.83;14.80;;;8.30;65.00;;;;;;4950051;28;20446;-74
2021/04/30 08:10:13;;;;;;;20.50;13.03;;;8.30;64.60;;;;;;4953321;28;20201;-74
2021/04/30 08:12:40;;;;;;;23.63;13.77;;;8.30;64.90;;;;;;4953509;29;20188;-75
2021/04/30 08:15:06;;;;;;;20.30;12.83;;;8.40;64.50;;;;;;4953944;28;20177;-74
2021/04/30 08:17:32;;;;;;;17.57;12.83;;;8.50;64.20;;;;;;4953971;28;20451;-75
2021/04/30 08:19:59;;;;;;;14.93;11.97;;;8.60;63.30;;;;;;4953393;28;20948;-74
2021/04/30 08:22:29;;;;;;;26.10;14.83;;;8.50;62.80;;;;;;4954237;28;20429;-74
2021/04/30 08:24:55;;;;;;;20.50;14.43;;;8.60;63.30;;;;;;4955748;28;20425;-74
2021/04/30 08:27:22;;;;;;;25.03;13.20;;;8.60;63.30;;;;;;4957680;28;20503;-74
2021/04/30 08:29:49;;;;;;;28.37;14.00;;;8.70;62.70;;;;;;4953431;28;20505;-74
2021/04/30 08:32:15;;;;;;;19.57;12.53;;;8.70;63.00;;;;;;4953669;28;20420;-74
2021/04/30 08:34:41;;;;;;;18.00;12.60;;;8.70;63.10;;;;;;4951795;28;20932;-77
2021/04/30 08:37:07;;;;;;;27.43;13.93;;;8.80;63.20;;;;;;4957585;29;20169;-74
2021/04/30 08:39:32;;;;;;;24.43;13.93;;;8.80;62.60;;;;;;4963762;28;20415;-75
2021/04/30 08:41:58;;;;;;;21.87;12.83;;;8.90;62.30;;;;;;4955373;28;20421;-74
2021/04/30 08:44:25;;;;;;;24.87;12.20;;;8.90;62.50;;;;;;4953319;28;20245;-74
2021/04/30 08:46:50;;;;;;;32.53;14.00;;;9.00;61.90;;;;;;4948143;28;20170;-74
2021/04/30 08:49:16;;;;;;;22.33;12.93;;;9.00;62.40;;;;;;4962300;28;20491;-74
2021/04/30 08:51:45;;;;;;;23.87;12.97;;;9.10;62.00;;;;;;4956110;28;20267;-74
2021/04/30 08:54:13;;;;;;;33.10;17.40;;;9.10;60.70;;;;;;4961900;28;20217;-74
2021/04/30 08:56:48;;;;;;;21.83;12.50;;;9.20;61.10;;;;;;4984368;28;20416;-74
2021/04/30 08:59:15;;;;;;;22.93;12.50;;;9.20;60.80;;;;;;4975439;28;20439;-74
2021/04/30 09:01:41;;;;;;;25.03;13.83;;;9.20;60.70;;;;;;4966147;28;20457;-75
2021/04/30 09:04:08;;;;;;;21.03;12.70;;;9.20;61.20;;;;;;4957643;28;20447;-79
2021/04/30 09:06:41;;;;;;;30.43;13.83;;;9.20;60.70;;;;;;4962262;28;20417;-75
2021/04/30 09:09:15;;;;;;;20.27;13.40;;;9.20;61.40;;;;;;4956168;28;20907;-76
2021/04/30 09:11:51;;;;;;;21.10;13.90;;;9.20;61.90;;;;;;4953144;29;20453;-75
2021/04/30 09:14:21;;;;;;;21.30;14.23;;;9.20;61.30;;;;;;4952559;28;20436;-75
2021/04/30 09:17:17;;;;;;;20.53;14.67;;;9.20;62.40;;;;;;4954430;28;20431;-75
2021/04/30 09:19:58;;;;;;;24.30;14.30;;;9.30;63.10;;;;;;4955293;28;20544;-75
2021/04/30 09:22:27;;;;;;;30.03;14.97;;;9.40;62.20;;;;;;4952330;28;20427;-74
2021/04/30 09:24:56;;;;;;;26.50;14.73;;;9.50;61.70;;;;;;4951698;28;20780;-75
2021/04/30 09:27:53;;;;;;;25.40;15.43;;;9.50;61.60;;;;;;4967185;28;20453;-75
2021/04/30 09:30:22;;;;;;;19.77;14.13;;;9.60;61.30;;;;;;4967901;28;20487;-75
2021/04/30 09:33:26;;;;;;;21.80;13.90;;;9.70;61.40;;;;;;4949645;28;20508;-75
2021/04/30 09:35:55;;;;;;;23.73;14.37;;;9.80;60.70;;;;;;4952470;28;20432;-75
2021/04/30 09:38:27;;;;;;;19.73;12.90;;;10.00;58.90;;;;;;4950395;29;20440;-75
2021/04/30 09:41:07;;;;;;;22.47;14.07;;;10.00;58.40;;;;;;4942075;29;20436;-75
2021/04/30 09:43:45;;;;;;;22.87;14.20;;;10.00;58.00;;;;;;4938319;29;20814;-75
2021/04/30 09:46:29;;;;;;;32.20;13.63;;;10.10;58.70;;;;;;4953898;28;20417;-75
2021/04/30 09:49:02;;;;;;;22.10;14.27;;;10.20;58.50;;;;;;4958060;28;20452;-75
2021/04/30 09:51:47;;;;;;;24.30;13.27;;;10.30;58.10;;;;;;4957486;28;20507;-73
2021/04/30 09:54:22;;;;;;;26.67;14.70;;;10.30;57.40;;;;;;4956363;28;20452;-74
2021/04/30 09:57:08;;;;;;;19.83;14.03;;;10.30;57.60;;;;;;4945315;29;20432;-74
2021/04/30 09:59:38;;;;;;;22.53;13.93;;;10.40;57.60;;;;;;4957076;28;20433;-75
2021/04/30 10:02:16;;;;;;;28.63;13.63;;;10.50;56.80;;;;;;4956033;28;20611;-76
2021/04/30 10:04:43;;;;;;;21.93;14.27;;;10.40;56.90;;;;;;4971540;28;21070;-75
2021/04/30 10:07:11;;;;;;;24.33;15.10;;;10.40;57.80;;;;;;4955388;28;20468;-74
2021/04/30 10:09:37;;;;;;;26.97;13.87;;;10.60;57.40;;;;;;4957989;28;20421;-75
2021/04/30 10:12:18;;;;;;;19.37;14.20;;;10.80;56.90;;;;;;4955017;28;20420;-76
2021/04/30 10:14:45;;;;;;;20.73;14.37;;;10.90;56.40;;;;;;4949520;29;20443;-75
2021/04/30 10:17:14;;;;;;;26.77;14.83;;;10.90;55.60;;;;;;4956305;28;20424;-75
2021/04/30 10:19:48;;;;;;;25.27;15.40;;;10.70;55.40;;;;;;4955781;28;20420;-74
2021/04/30 10:22:18;;;;;;;19.50;13.93;;;10.60;56.20;;;;;;4955744;28;20520;-76
2021/04/30 10:24:47;;;;;;;26.77;15.67;;;10.70;56.90;;;;;;4969902;28;20432;-75
2021/04/30 10:27:18;;;;;;;23.23;13.53;;;10.80;55.50;;;;;;4956325;28;20460;-74
2021/04/30 10:29:50;;;;;;;22.40;13.10;;;10.70;56.20;;;;;;4954830;28;20521;-74
2021/04/30 10:32:18;;;;;;;21.83;14.43;;;10.80;56.10;;;;;;4961235;28;20439;-75
2021/04/30 10:34:48;;;;;;;26.80;15.30;;;11.00;55.90;;;;;;4956834;28;20421;-74
2021/04/30 10:37:21;;;;;;;24.83;14.53;;;11.00;55.40;;;;;;4961722;28;20491;-74
2021/04/30 10:39:58;;;;;;;21.80;13.97;;;11.10;55.70;;;;;;4963589;28;20441;-74
2021/04/30 10:42:29;;;;;;;22.27;14.10;;;11.30;55.60;;;;;;4956369;28;20432;-75
2021/04/30 10:45:01;;;;;;;30.87;16.57;;;11.40;54.80;;;;;;4955207;28;20440;-75
2021/04/30 10:47:28;;;;;;;23.90;13.87;;;11.40;54.60;;;;;;4957101;28;20477;-74
2021/04/30 10:50:16;;;;;;;26.20;14.70;;;11.30;55.30;;;;;;4958785;28;20485;-74
2021/04/30 10:52:43;;;;;;;24.43;14.87;;;11.40;55.10;;;;;;4957454;28;20484;-73
2021/04/30 10:55:17;;;;;;;22.73;14.33;;;11.50;55.50;;;;;;4955639;28;20439;-75
2021/04/30 10:58:02;;;;;;;21.23;14.17;;;11.60;54.90;;;;;;4955008;28;20486;-74
2021/04/30 11:00:41;;;;;;;25.93;14.33;;;11.60;53.80;;;;;;4953556;28;20443;-75
2021/04/30 11:03:15;;;;;;;28.03;15.17;;;11.60;54.50;;;;;;4956185;28;20451;-74
2021/04/30 11:06:03;;;;;;;29.57;16.70;;;11.70;54.60;;;;;;4950806;28;20500;-74
2021/04/30 11:08:48;;;;;;;31.20;16.07;;;11.70;54.30;;;;;;4951656;28;20455;-74
2021/04/30 11:11:14;;;;;;;23.87;16.40;;;11.80;54.10;;;;;;4954994;28;20844;-74
2021/04/30 11:13:40;;;;;;;23.67;15.97;;;11.90;54.10;;;;;;4955760;28;20809;-74
2021/04/30 11:16:06;;;;;;;22.90;15.97;;;12.00;54.00;;;;;;4952650;28;20424;-76
2021/04/30 11:18:59;;;;;;;24.73;17.93;;;12.20;53.80;;;;;;4954288;28;20463;-75
2021/04/30 11:21:40;;;;;;;27.93;16.07;;;12.50;53.30;;;;;;4936752;29;20434;-74
2021/04/30 11:24:26;;;;;;;26.97;16.20;;;12.60;52.20;;;;;;4969540;28;20452;-75
2021/04/30 11:27:07;;;;;;;26.57;15.77;;;12.70;51.90;;;;;;4944579;29;20991;-73
2021/04/30 11:29:33;;;;;;;25.40;16.80;;;12.70;52.20;;;;;;4969899;28;20417;-74
2021/04/30 11:32:20;;;;;;;30.07;18.70;;;12.80;52.20;;;;;;4954852;28;20420;-75
2021/04/30 11:35:00;;;;;;;30.30;19.47;;;12.90;51.80;;;;;;4954443;28;20228;-76
2021/04/30 11:37:33;;;;;;;21.93;16.40;;;13.20;51.10;;;;;;4954401;28;20943;-76
2021/04/30 11:40:00;;;;;;;26.67;17.63;;;13.20;50.80;;;;;;4955412;28;20853;-75
2021/04/30 11:42:33;;;;;;;24.73;15.80;;;13.30;50.50;;;;;;4955083;28;20405;-76
2021/04/30 11:45:00;;;;;;;25.80;15.93;;;13.30;50.80;;;;;;4952245;28;20550;-76
2021/04/30 11:47:44;;;;;;;23.63;16.03;;;13.20;50.20;;;;;;4952920;28;20488;-74
2021/04/30 11:50:12;;;;;;;24.20;15.83;;;13.20;50.60;;;;;;4952663;28;20440;-76
2021/04/30 11:52:44;;;;;;;26.03;15.77;;;13.30;50.50;;;;;;4952738;28;20460;-75
2021/04/30 11:55:13;;;;;;;26.70;15.13;;;13.30;50.90;;;;;;4953618;28;20521;-76
2021/04/30 11:57:39;;;;;;;23.47;15.73;;;13.40;50.50;;;;;;4954944;28;20444;-77
2021/04/30 12:00:11;;;;;;;27.13;14.83;;;13.60;50.70;;;;;;4954078;28;20440;-74
2021/04/30 12:02:41;;;;;;;29.50;15.50;;;13.70;50.40;;;;;;4954598;28;20532;-75
2021/04/30 12:05:07;;;;;;;21.63;13.90;;;13.90;50.10;;;;;;4952355;28;20436;-78
2021/04/30 12:07:34;;;;;;;22.47;14.10;;;14.00;49.90;;;;;;4953777;28;20562;-77
2021/04/30 12:10:00;;;;;;;23.03;14.80;;;14.10;48.60;;;;;;4954933;28;20929;-76
2021/04/30 12:12:29;;;;;;;18.53;13.97;;;14.00;48.60;;;;;;4954775;28;20423;-76
2021/04/30 12:15:07;;;;;;;23.77;15.73;;;14.10;48.60;;;;;;4953334;28;20492;-75
2021/04/30 12:17:39;;;;;;;22.87;14.60;;;14.10;48.80;;;;;;4954110;28;20438;-75
2021/04/30 12:20:19;;;;;;;26.87;16.77;;;14.10;47.60;;;;;;4954303;28;20785;-75
2021/04/30 12:22:51;;;;;;;24.30;13.73;;;14.00;47.90;;;;;;4954855;28;20429;-77
2021/04/30 12:25:46;;;;;;;28.77;15.40;;;14.10;48.70;;;;;;4954421;28;20419;-76
2021/04/30 12:28:15;;;;;;;29.77;16.07;;;14.20;46.90;;;;;;4954004;28;21328;-75
2021/04/30 12:30:41;;;;;;;21.43;14.47;;;13.80;47.80;;;;;;4954410;28;20409;-76
2021/04/30 12:33:08;;;;;;;25.30;15.23;;;13.90;48.60;;;;;;4953129;28;20449;-75
2021/04/30 12:35:35;;;;;;;22.40;14.40;;;13.90;48.40;;;;;;4952328;28;20424;-75
2021/04/30 12:38:01;;;;;;;23.37;13.80;;;13.80;48.60;;;;;;4954781;28;20436;-73
2021/04/30 12:40:28;;;;;;;24.87;15.80;;;13.70;48.70;;;;;;4954701;28;20495;-74
2021/04/30 12:42:55;;;;;;;19.17;14.40;;;13.70;48.90;;;;;;4953374;28;20475;-74
2021/04/30 12:45:22;;;;;;;24.07;15.70;;;13.50;48.80;;;;;;4952870;28;20428;-75